This is the latest recevied weather packets stored in our database for station/object K4AGR-13. If no packets are shown the sender has not sent any weather packets the latest 10 day(s).
| Time | Temp. | Humidity | Pressure | Rain* | Wind** | Luminosity | Snow |
|---|---|---|---|---|---|---|---|
| 1777472286 | 24.44° C | 73% | 1017.2 hPa | 0 mm | - | 594 W/m² | - |
| 1777471982 | 24.44° C | 71% | 1017.3 hPa | 0 mm | - | 691 W/m² | - |
| 1777471678 | 23.89° C | 74% | 1017.5 hPa | 0 mm | - | 333 W/m² | - |
| 1777471375 | 24.44° C | 73% | 1017.1 hPa | 0 mm | - | 333 W/m² | - |
| 1777471071 | 24.44° C | 74% | 1016.9 hPa | 0 mm | - | 623 W/m² | - |
| 1777470769 | 23.89° C | 75% | 1016.9 hPa | 0 mm | - | 510 W/m² | - |
| 1777470464 | 23.33° C | 76% | 1016.8 hPa | 0 mm | - | 475 W/m² | - |
| 1777470161 | 23.33° C | 77% | 1016.9 hPa | 0 mm | - | 496 W/m² | - |
| 1777469858 | 22.78° C | 79% | 1017 hPa | 0 mm | - | 482 W/m² | - |
| 1777469554 | 22.22° C | 81% | 1017 hPa | 0 mm | - | 415 W/m² | - |
| 1777469254 | 22.78° C | 79% | 1017 hPa | 0 mm | - | 198 W/m² | - |
| 1777468949 | 22.22° C | 82% | 1017.1 hPa | 0 mm | - | 218 W/m² | - |
| 1777468645 | 22.22° C | 82% | 1017.1 hPa | 0 mm | - | 214 W/m² | - |
| 1777468342 | 21.67° C | 83% | 1017.1 hPa | 0 mm | - | 210 W/m² | - |
| 1777468038 | 21.67° C | 85% | 1017.5 hPa | 0 mm | - | 161 W/m² | - |
| 1777467734 | 21.67° C | 85% | 1017.3 hPa | 0 mm | - | 202 W/m² | - |
| 1777467430 | 20.56° C | 88% | 1017.3 hPa | 0 mm | - | 366 W/m² | - |
| 1777467125 | 20° C | 91% | 1017.2 hPa | 0 mm | - | 319 W/m² | - |
| 1777466823 | 20° C | 93% | 1017.4 hPa | 0 mm | - | 171 W/m² | - |
| 1777466521 | 19.44° C | 94% | 1017.3 hPa | 0 mm | - | 229 W/m² | - |
| 1777466216 | 18.89° C | 94% | 1017.5 hPa | 0 mm | - | 101 W/m² | - |
| 1777465913 | 18.89° C | 94% | 1016.8 hPa | 0 mm | - | 67 W/m² | - |
| 1777465609 | 18.89° C | 94% | 1016.6 hPa | 0 mm | - | 42 W/m² | - |
| 1777465304 | 18.89° C | 94% | 1017 hPa | 0 mm | - | 22 W/m² | - |
| 1777464999 | 18.89° C | 95% | 1017.4 hPa | 0 mm | - | 32 W/m² | - |
* Rain latest hour (hover to see other rain measurements)
** Current wind speed in m/s (hover to see current wind gust speed)